createdAt,value
2022-08-05T00:00:10.606Z,21.47
2022-08-05T00:01:20.513Z,21.45
2022-08-05T00:02:11.487Z,21.45
2022-08-05T00:03:09.567Z,21.44
2022-08-05T00:04:10.566Z,21.44
2022-08-05T00:05:09.566Z,21.44
2022-08-05T00:06:27.733Z,21.41
2022-08-05T00:07:27.164Z,21.43
2022-08-05T00:08:19.813Z,21.41
2022-08-05T00:09:12.823Z,21.41
2022-08-05T00:10:09.502Z,21.41
2022-08-05T00:11:20.579Z,21.41
2022-08-05T00:12:13.217Z,21.43
2022-08-05T00:13:09.487Z,21.44
2022-08-05T00:14:12.675Z,21.43
2022-08-05T00:15:54.165Z,21.43
2022-08-05T00:16:12.148Z,21.43
2022-08-05T00:17:19.477Z,21.43
2022-08-05T00:18:10.417Z,21.43
2022-08-05T00:19:10.397Z,21.41
2022-08-05T00:20:09.467Z,21.44
2022-08-05T00:21:09.379Z,21.44
2022-08-05T00:22:11.512Z,21.41
2022-08-05T00:23:12.962Z,21.43
2022-08-05T00:24:11.086Z,21.40
2022-08-05T00:25:10.416Z,21.40
2022-08-05T00:26:09.397Z,21.37
2022-08-05T00:27:10.507Z,21.35
2022-08-05T00:28:10.298Z,21.35
2022-08-05T00:29:09.309Z,21.34
2022-08-05T00:30:11.271Z,21.34
2022-08-05T00:31:09.267Z,21.32
2022-08-05T00:32:12.426Z,21.29
2022-08-05T00:33:15.635Z,21.28
2022-08-05T00:34:53.692Z,21.28
2022-08-05T00:35:10.232Z,21.26
2022-08-05T00:36:16.062Z,21.28
2022-08-05T00:37:14.339Z,21.28
2022-08-05T00:38:09.415Z,21.26
2022-08-05T00:39:13.534Z,21.28
2022-08-05T00:40:09.521Z,21.28
2022-08-05T00:41:11.745Z,21.28
2022-08-05T00:42:09.148Z,21.28
2022-08-05T00:43:09.149Z,21.28
2022-08-05T00:44:10.130Z,21.26
2022-08-05T00:45:11.766Z,21.26
2022-08-05T00:46:09.152Z,21.26
2022-08-05T00:47:09.099Z,21.25
2022-08-05T00:48:09.504Z,21.25
2022-08-05T00:49:09.070Z,21.22
2022-08-05T00:50:10.069Z,21.19
2022-08-05T00:51:51.695Z,21.19
2022-08-05T00:52:10.090Z,21.18
2022-08-05T00:53:09.897Z,21.19
2022-08-05T00:54:10.019Z,21.19
2022-08-05T00:55:09.009Z,21.18
2022-08-05T00:56:09.009Z,21.16
2022-08-05T00:57:09.020Z,21.16
2022-08-05T00:58:11.152Z,21.14
2022-08-05T00:59:08.959Z,21.14
2022-08-05T01:00:11.193Z,21.13
2022-08-05T01:01:09.626Z,21.10
2022-08-05T01:02:08.941Z,21.08
2022-08-05T01:03:08.924Z,21.07
2022-08-05T01:04:13.653Z,21.05
2022-08-05T01:05:10.318Z,21.03
2022-08-05T01:06:11.240Z,21.01
2022-08-05T01:07:13.592Z,20.98
2022-08-05T01:08:40.112Z,20.93
2022-08-05T01:09:09.859Z,20.86
2022-08-05T01:10:09.170Z,20.82
2022-08-05T01:11:08.860Z,20.75
2022-08-05T01:12:18.064Z,20.67
2022-08-05T01:13:12.947Z,20.61
2022-08-05T01:14:09.810Z,20.52
2022-08-05T01:15:36.249Z,20.44
2022-08-05T01:16:09.782Z,20.41
2022-08-05T01:17:08.811Z,20.36
2022-08-05T01:18:08.761Z,20.34
2022-08-05T01:19:08.752Z,20.34
2022-08-05T01:20:08.741Z,20.32
2022-08-05T01:21:08.729Z,20.29
2022-08-05T01:22:10.859Z,20.29
2022-08-05T01:24:19.248Z,20.26
2022-08-05T01:25:19.249Z,20.19
2022-08-05T01:26:19.188Z,20.15
2022-08-05T01:27:19.686Z,20.12
2022-08-05T01:28:19.197Z,20.11
2022-08-05T01:29:19.268Z,20.08
2022-08-05T01:30:19.162Z,20.07
2022-08-05T01:31:20.149Z,20.04
2022-08-05T01:32:19.132Z,20.00
2022-08-05T01:33:19.639Z,19.99
2022-08-05T01:34:19.139Z,20.02
2022-08-05T01:35:52.148Z,20.00
2022-08-05T01:36:21.096Z,20.00
2022-08-05T01:37:25.061Z,19.99
2022-08-05T01:38:27.318Z,19.94
2022-08-05T01:39:36.100Z,19.93
2022-08-05T01:40:29.094Z,19.90
2022-08-05T01:41:19.077Z,19.89
2022-08-05T01:42:19.020Z,19.87
2022-08-05T01:43:22.053Z,19.84
2022-08-05T01:44:19.001Z,19.79
2022-08-05T01:45:18.984Z,19.77
2022-08-05T01:46:41.470Z,19.74
2022-08-05T01:47:19.999Z,19.75
2022-08-05T01:48:18.950Z,19.72
2022-08-05T01:49:23.996Z,19.71
2022-08-05T01:50:19.940Z,19.71
2022-08-05T01:51:19.956Z,19.70
2022-08-05T01:52:24.749Z,19.67
2022-08-05T01:53:54.395Z,19.68
2022-08-05T01:54:19.889Z,19.68
2022-08-05T01:55:19.880Z,19.67
2022-08-05T01:58:10.037Z,19.63
2022-08-05T01:58:12.769Z,19.64
2022-08-05T01:58:40.512Z,19.63
2022-08-05T01:59:19.842Z,19.64
2022-08-05T02:00:18.852Z,19.63
2022-08-05T02:01:25.294Z,19.63
2022-08-05T02:02:19.911Z,19.64
2022-08-05T02:03:24.210Z,19.63
2022-08-05T02:04:19.781Z,19.62
2022-08-05T02:05:18.768Z,19.62
2022-08-05T02:06:37.808Z,19.60
2022-08-05T02:07:22.043Z,19.59
2022-08-05T02:08:28.901Z,19.57
2022-08-05T02:09:20.643Z,19.57
2022-08-05T02:10:18.710Z,19.56
2022-08-05T02:11:23.706Z,19.56
2022-08-05T02:12:18.692Z,19.56
2022-08-05T02:13:18.690Z,19.52
2022-08-05T02:14:18.707Z,19.52
2022-08-05T02:15:19.892Z,19.53
2022-08-05T02:16:18.688Z,19.52
2022-08-05T02:18:27.608Z,19.50
2022-08-05T02:18:30.718Z,19.49
2022-08-05T02:19:19.620Z,19.45
2022-08-05T02:20:20.574Z,19.45
2022-08-05T02:21:18.600Z,19.44
2022-08-05T02:22:26.438Z,19.42
2022-08-05T02:23:19.581Z,19.39
2022-08-05T02:24:18.559Z,19.38
2022-08-05T02:25:18.564Z,19.38
2022-08-05T02:26:18.579Z,19.37
2022-08-05T02:27:18.582Z,19.39
2022-08-05T02:28:29.083Z,19.39
2022-08-05T02:29:21.625Z,19.39
2022-08-05T02:30:18.500Z,19.37
2022-08-05T02:31:21.031Z,19.38
2022-08-05T02:32:19.828Z,19.38
2022-08-05T02:33:35.656Z,19.35
2022-08-05T02:34:19.461Z,19.37
2022-08-05T02:35:19.160Z,19.35
2022-08-05T02:36:19.433Z,19.35
2022-08-05T02:37:18.431Z,19.37
2022-08-05T02:38:19.469Z,19.39
2022-08-05T02:39:18.443Z,19.41
2022-08-05T02:40:18.382Z,19.42
2022-08-05T02:41:18.445Z,19.42
2022-08-05T02:42:26.073Z,19.39
2022-08-05T02:43:19.361Z,19.37
2022-08-05T02:44:18.351Z,19.37
2022-08-05T02:45:18.349Z,19.39
2022-08-05T02:46:18.322Z,19.41
2022-08-05T02:47:19.381Z,19.41
2022-08-05T02:48:18.317Z,19.39
2022-08-05T02:49:18.301Z,19.38
2022-08-05T02:50:18.312Z,19.37
2022-08-05T02:51:18.273Z,19.37
2022-08-05T02:52:25.844Z,19.35
2022-08-05T02:53:23.162Z,19.32
2022-08-05T02:54:35.982Z,19.32
2022-08-05T02:55:53.849Z,19.34
2022-08-05T02:56:19.218Z,19.39
2022-08-05T02:58:20.020Z,19.38
2022-08-05T02:58:20.362Z,19.39
2022-08-05T02:59:18.222Z,19.38
2022-08-05T03:00:18.173Z,19.38
2022-08-05T03:01:19.569Z,19.38
2022-08-05T03:02:18.167Z,19.38
2022-08-05T03:03:18.165Z,19.38
2022-08-05T03:04:18.163Z,19.37
2022-08-05T03:05:18.130Z,19.38
2022-08-05T03:06:55.332Z,19.37
2022-08-05T03:07:59.162Z,19.31
2022-08-05T03:08:27.007Z,19.23
2022-08-05T03:09:27.109Z,19.22
2022-08-05T03:10:22.112Z,19.19
2022-08-05T03:11:54.363Z,19.22
2022-08-05T03:12:19.051Z,19.22
2022-08-05T03:13:18.044Z,19.17
2022-08-05T03:14:18.063Z,19.17
2022-08-05T03:15:18.202Z,19.13
2022-08-05T03:16:18.005Z,19.12
2022-08-05T03:17:18.016Z,19.08
2022-08-05T03:18:17.991Z,19.07
2022-08-05T03:19:33.895Z,19.04
2022-08-05T03:20:19.035Z,19.04
2022-08-05T03:21:17.952Z,18.98
2022-08-05T03:22:18.920Z,18.94
2022-08-05T03:23:18.933Z,18.93
2022-08-05T03:24:23.617Z,18.93
2022-08-05T03:26:02.575Z,18.96
2022-08-05T03:26:31.612Z,18.97
2022-08-05T03:27:18.903Z,19.01
2022-08-05T03:28:18.636Z,19.04
2022-08-05T03:29:18.157Z,19.04
2022-08-05T03:30:17.852Z,19.05
2022-08-05T03:31:56.083Z,19.04
2022-08-05T03:32:19.334Z,19.01
2022-08-05T03:33:17.833Z,19.04
2022-08-05T03:34:17.813Z,19.07
2022-08-05T03:35:17.803Z,19.07
2022-08-05T03:36:17.834Z,19.08
2022-08-05T03:37:18.784Z,19.09
2022-08-05T03:38:17.770Z,19.12
2022-08-05T03:39:20.106Z,19.13
2022-08-05T03:40:31.320Z,19.16
2022-08-05T03:41:18.806Z,19.19
2022-08-05T03:42:17.722Z,19.20
2022-08-05T03:44:08.107Z,19.22
2022-08-05T03:44:19.874Z,19.23
2022-08-05T03:45:21.399Z,19.23
2022-08-05T03:46:18.682Z,19.23
2022-08-05T03:47:17.710Z,19.17
2022-08-05T03:48:21.995Z,19.16
2022-08-05T03:49:18.650Z,19.13
2022-08-05T03:50:17.639Z,19.08
2022-08-05T03:52:38.382Z,19.09
2022-08-05T03:52:48.835Z,19.08
2022-08-05T03:55:34.547Z,19.09
2022-08-05T03:55:52.303Z,19.08
2022-08-05T03:56:05.120Z,19.12
2022-08-05T03:56:30.614Z,19.15
2022-08-05T03:57:18.566Z,19.16
2022-08-05T03:58:17.582Z,19.15
2022-08-05T03:59:20.214Z,19.16
2022-08-05T04:00:17.531Z,19.16
2022-08-05T04:01:20.926Z,19.16
2022-08-05T04:02:38.229Z,19.16
2022-08-05T04:03:28.917Z,19.16
2022-08-05T04:04:21.216Z,19.16
2022-08-05T04:05:17.483Z,19.16
2022-08-05T04:06:17.466Z,19.13
2022-08-05T04:07:17.499Z,19.12
2022-08-05T04:08:30.168Z,19.09
2022-08-05T04:09:20.321Z,19.04
2022-08-05T04:10:18.418Z,18.98
2022-08-05T04:11:17.422Z,18.93
2022-08-05T04:12:24.488Z,18.88
2022-08-05T04:13:18.417Z,18.82
2022-08-05T04:14:18.201Z,18.76
2022-08-05T04:15:17.384Z,18.71
2022-08-05T04:16:25.121Z,18.70
2022-08-05T04:17:18.387Z,18.66
2022-08-05T04:18:20.460Z,18.66
2022-08-05T04:19:18.336Z,18.66
2022-08-05T04:20:18.312Z,18.63
2022-08-05T04:21:19.908Z,18.61
2022-08-05T04:22:20.426Z,18.57
2022-08-05T04:23:17.975Z,18.54
2022-08-05T04:24:19.366Z,18.52
2022-08-05T04:25:17.303Z,18.52
2022-08-05T04:26:17.510Z,18.51
2022-08-05T04:27:17.263Z,18.51
2022-08-05T04:28:17.425Z,18.51
2022-08-05T04:29:17.228Z,18.51
2022-08-05T04:30:17.207Z,18.49
2022-08-05T04:31:17.195Z,18.46
2022-08-05T04:32:28.089Z,18.43
2022-08-05T04:33:36.364Z,18.42
2022-08-05T04:34:32.614Z,18.42
2022-08-05T04:35:19.491Z,18.39
2022-08-05T04:36:49.421Z,18.39
2022-08-05T04:38:00.945Z,18.38
2022-08-05T04:38:18.115Z,18.38
2022-08-05T04:39:17.210Z,18.39
2022-08-05T04:40:19.494Z,18.41
2022-08-05T04:41:17.085Z,18.41
2022-08-05T04:42:25.501Z,18.43
2022-08-05T04:43:17.066Z,18.46
2022-08-05T04:44:21.463Z,18.45
2022-08-05T04:45:30.989Z,18.42
2022-08-05T04:46:28.158Z,18.42
2022-08-05T04:47:18.747Z,18.43
2022-08-05T04:48:27.073Z,18.45
2022-08-05T04:49:18.005Z,18.45
2022-08-05T04:50:37.278Z,18.45
2022-08-05T04:51:17.976Z,18.45
2022-08-05T04:52:16.985Z,18.45
2022-08-05T04:53:16.957Z,18.45
2022-08-05T04:54:16.940Z,18.45
2022-08-05T04:55:16.936Z,18.43
2022-08-05T04:56:35.069Z,18.45
2022-08-05T04:57:17.950Z,18.45
2022-08-05T04:58:16.918Z,18.45
2022-08-05T04:59:36.648Z,18.45
2022-08-05T05:00:17.887Z,18.45
2022-08-05T05:02:06.263Z,18.46
2022-08-05T05:02:41.245Z,18.49
2022-08-05T05:03:18.791Z,18.45
2022-08-05T05:04:16.856Z,18.42
2022-08-05T05:05:28.455Z,18.41
2022-08-05T05:06:39.125Z,18.41
2022-08-05T05:07:17.797Z,18.41
2022-08-05T05:08:26.709Z,18.42
2022-08-05T05:09:18.482Z,18.43
2022-08-05T05:10:16.764Z,18.43
2022-08-05T05:11:16.747Z,18.49
2022-08-05T05:12:16.745Z,18.54
2022-08-05T05:13:16.736Z,18.57
2022-08-05T05:14:16.724Z,18.61
2022-08-05T05:15:17.771Z,18.66
2022-08-05T05:16:19.751Z,18.70
2022-08-05T05:17:22.816Z,18.71
2022-08-05T05:18:30.967Z,18.71
2022-08-05T05:19:19.393Z,18.86
2022-08-05T05:20:17.665Z,18.89
2022-08-05T05:21:16.667Z,18.91
2022-08-05T05:22:24.219Z,18.93
2022-08-05T05:23:19.869Z,18.97
2022-08-05T05:24:17.719Z,18.96
2022-08-05T05:25:17.518Z,18.93
2022-08-05T05:26:16.587Z,18.91
2022-08-05T05:27:16.587Z,18.86
2022-08-05T05:28:16.567Z,18.82
2022-08-05T05:29:16.559Z,18.79
2022-08-05T05:30:30.717Z,18.79
2022-08-05T05:31:18.560Z,18.83
2022-08-05T05:32:16.527Z,18.86
2022-08-05T05:33:17.541Z,18.94
2022-08-05T05:34:20.011Z,19.09
2022-08-05T05:35:19.970Z,19.19
2022-08-05T05:36:16.478Z,19.19
2022-08-05T05:37:16.474Z,19.30
2022-08-05T05:38:27.229Z,19.30
2022-08-05T05:39:19.140Z,19.23
2022-08-05T05:40:16.427Z,19.32
2022-08-05T05:41:16.519Z,19.35
2022-08-05T05:42:16.414Z,19.41
2022-08-05T05:43:16.414Z,19.42
2022-08-05T05:44:37.502Z,19.44
2022-08-05T05:45:17.388Z,19.41
2022-08-05T05:46:18.028Z,19.32
2022-08-05T05:47:21.969Z,19.26
2022-08-05T05:48:17.357Z,19.22
2022-08-05T05:49:22.302Z,19.20
2022-08-05T05:50:19.830Z,19.15
2022-08-05T05:51:16.327Z,19.05
2022-08-05T05:52:26.454Z,19.04
2022-08-05T05:53:21.362Z,19.01
2022-08-05T05:54:16.288Z,19.04
2022-08-05T05:55:16.279Z,19.05
2022-08-05T05:56:16.269Z,19.05
2022-08-05T05:57:19.323Z,19.01
2022-08-05T05:58:16.248Z,19.00
2022-08-05T05:59:16.265Z,19.00
2022-08-05T06:00:16.227Z,18.98
2022-08-05T06:01:16.219Z,19.08
2022-08-05T06:02:16.228Z,19.13
2022-08-05T06:03:39.899Z,19.13
2022-08-05T06:04:17.273Z,19.08
2022-08-05T06:05:16.692Z,19.05
2022-08-05T06:06:16.173Z,19.05
2022-08-05T06:07:16.234Z,19.04
2022-08-05T06:08:16.170Z,19.00
2022-08-05T06:09:26.530Z,19.01
2022-08-05T06:10:17.118Z,18.97
2022-08-05T06:11:16.119Z,18.96
2022-08-05T06:12:16.111Z,18.96
2022-08-05T06:13:16.088Z,18.93
2022-08-05T06:14:16.122Z,18.93
2022-08-05T06:15:23.921Z,18.94
2022-08-05T06:16:30.284Z,18.88
2022-08-05T06:17:22.672Z,18.83
2022-08-05T06:18:17.040Z,18.78
2022-08-05T06:19:26.038Z,18.76
2022-08-05T06:20:18.905Z,18.75
2022-08-05T06:21:18.460Z,18.67
2022-08-05T06:22:15.990Z,18.64
2022-08-05T06:23:15.969Z,18.61
2022-08-05T06:24:15.979Z,18.60
2022-08-05T06:25:24.321Z,18.61
2022-08-05T06:26:21.659Z,18.61
2022-08-05T06:28:09.098Z,18.63
2022-08-05T06:28:21.405Z,18.60
2022-08-05T06:29:25.267Z,18.57
2022-08-05T06:30:19.926Z,18.56
2022-08-05T06:31:17.939Z,18.56
2022-08-05T06:32:25.292Z,18.51
2022-08-05T06:33:19.319Z,18.46
2022-08-05T06:34:16.874Z,18.39
2022-08-05T06:36:02.858Z,18.38
2022-08-05T06:36:16.840Z,18.33
2022-08-05T06:37:15.904Z,18.27
2022-08-05T06:38:16.984Z,18.23
2022-08-05T06:39:15.861Z,18.24
2022-08-05T06:40:18.415Z,18.20
2022-08-05T06:41:16.782Z,18.20
2022-08-05T06:42:15.780Z,18.20
2022-08-05T06:43:51.620Z,18.20
2022-08-05T06:44:16.821Z,18.15
2022-08-05T06:45:20.832Z,18.08
2022-08-05T06:46:16.730Z,18.06
2022-08-05T06:47:29.982Z,18.05
2022-08-05T06:48:47.353Z,18.01
2022-08-05T06:49:16.699Z,18.01
2022-08-05T06:50:17.292Z,17.99
2022-08-05T06:51:26.646Z,17.99
2022-08-05T06:52:36.710Z,17.96
2022-08-05T06:53:22.617Z,17.96
2022-08-05T06:54:19.119Z,17.97
2022-08-05T06:55:15.641Z,17.99
2022-08-05T06:56:26.285Z,18.02
2022-08-05T06:57:57.691Z,18.02
2022-08-05T06:58:29.238Z,18.05
2022-08-05T06:59:16.580Z,18.06
2022-08-05T07:00:24.510Z,18.09
2022-08-05T07:01:16.691Z,18.12
2022-08-05T07:02:15.564Z,18.13
2022-08-05T07:03:16.741Z,18.11
2022-08-05T07:04:15.549Z,18.11
2022-08-05T07:05:20.078Z,18.12
2022-08-05T07:06:15.520Z,18.24
2022-08-05T07:07:15.543Z,18.52
2022-08-05T07:08:16.491Z,18.61
2022-08-05T07:09:15.481Z,18.75
2022-08-05T07:10:16.238Z,19.00
2022-08-05T07:11:15.965Z,19.01
2022-08-05T07:12:15.456Z,19.00
2022-08-05T07:13:15.441Z,18.93
2022-08-05T07:14:20.384Z,18.85
2022-08-05T07:15:34.057Z,18.67
2022-08-05T07:17:55.912Z,18.46
2022-08-05T07:18:00.161Z,18.39
2022-08-05T07:18:27.232Z,18.33
2022-08-05T07:19:31.825Z,18.27
2022-08-05T07:20:32.939Z,18.26
2022-08-05T07:21:16.352Z,18.21
2022-08-05T07:22:16.343Z,18.17
2022-08-05T07:23:26.458Z,18.13
2022-08-05T07:24:16.375Z,18.11
2022-08-05T07:25:54.085Z,18.11
2022-08-05T07:26:20.934Z,18.08
2022-08-05T07:27:16.284Z,18.06
2022-08-05T07:28:17.474Z,18.05
2022-08-05T07:29:15.261Z,18.01
2022-08-05T07:30:30.268Z,17.99
2022-08-05T07:31:16.234Z,17.97
2022-08-05T07:32:15.268Z,17.96
2022-08-05T07:33:16.497Z,17.97
2022-08-05T07:34:15.505Z,17.99
2022-08-05T07:36:03.641Z,17.99
2022-08-05T07:36:20.627Z,18.02
2022-08-05T07:37:16.214Z,18.05
2022-08-05T07:38:32.969Z,18.06
2022-08-05T07:39:24.692Z,18.02
2022-08-05T07:40:27.149Z,18.03
2022-08-05T07:42:09.069Z,18.06
2022-08-05T07:42:16.308Z,18.09
2022-08-05T07:43:20.751Z,18.08
2022-08-05T07:44:19.316Z,18.05
2022-08-05T07:45:15.116Z,18.08
2022-08-05T07:46:24.818Z,18.08
2022-08-05T07:47:16.087Z,18.06
2022-08-05T07:48:15.055Z,18.08
2022-08-05T07:49:16.074Z,18.06
2022-08-05T07:50:16.561Z,18.02
2022-08-05T07:51:23.824Z,17.94
2022-08-05T07:52:16.056Z,17.88
2022-08-05T07:53:15.007Z,17.87
2022-08-05T07:54:14.991Z,17.86
2022-08-05T07:55:16.105Z,17.86
2022-08-05T07:56:39.105Z,17.86
2022-08-05T07:57:41.341Z,17.83
2022-08-05T07:58:54.523Z,17.76
2022-08-05T07:59:15.934Z,17.75
2022-08-05T08:00:14.925Z,17.71
2022-08-05T08:01:14.948Z,17.69
2022-08-05T08:02:15.942Z,17.69
2022-08-05T08:03:16.041Z,17.69
2022-08-05T08:04:14.878Z,17.69
2022-08-05T08:05:14.862Z,17.68
2022-08-05T08:06:14.864Z,17.68
2022-08-05T08:07:14.979Z,17.68
2022-08-05T08:08:14.925Z,17.66
2022-08-05T08:09:14.815Z,17.66
2022-08-05T08:10:14.814Z,17.66
2022-08-05T08:11:16.146Z,17.63
2022-08-05T08:12:35.485Z,17.63
2022-08-05T08:13:15.806Z,17.66
2022-08-05T08:14:18.418Z,17.66
2022-08-05T08:15:15.735Z,17.66
2022-08-05T08:16:35.252Z,17.66
2022-08-05T08:17:16.423Z,17.63
2022-08-05T08:18:14.787Z,17.56
2022-08-05T08:20:21.495Z,17.56
2022-08-05T08:20:42.449Z,17.56
2022-08-05T08:21:15.951Z,17.57
2022-08-05T08:22:15.901Z,17.59
2022-08-05T08:24:01.654Z,17.62
2022-08-05T08:24:15.665Z,17.65
2022-08-05T08:25:16.266Z,17.65
2022-08-05T08:26:14.643Z,17.63
2022-08-05T08:27:16.632Z,17.63
2022-08-05T08:28:18.743Z,17.66
2022-08-05T08:30:03.207Z,17.69
2022-08-05T08:30:29.918Z,17.69
2022-08-05T08:31:17.427Z,17.71
2022-08-05T08:32:15.139Z,17.69
2022-08-05T08:33:14.583Z,17.73
2022-08-05T08:34:14.733Z,17.75
2022-08-05T08:35:14.539Z,17.73
2022-08-05T08:36:48.889Z,17.73
2022-08-05T08:37:18.885Z,17.75
2022-08-05T08:38:16.287Z,17.66
2022-08-05T08:39:15.862Z,17.62
2022-08-05T08:40:14.494Z,17.53
2022-08-05T08:41:14.477Z,17.52
2022-08-05T08:42:32.461Z,17.50
2022-08-05T08:45:01.570Z,17.52
2022-08-05T08:45:17.856Z,17.50
2022-08-05T08:45:24.391Z,17.49
2022-08-05T08:46:15.640Z,17.52
2022-08-05T08:47:21.732Z,17.54
2022-08-05T08:48:36.083Z,17.57
2022-08-05T08:50:07.725Z,17.63
2022-08-05T08:50:31.077Z,17.69
2022-08-05T08:51:30.638Z,17.76
2022-08-05T08:52:15.453Z,17.83
2022-08-05T08:53:14.377Z,17.88
2022-08-05T08:54:14.340Z,17.93
2022-08-05T08:55:14.349Z,17.97
2022-08-05T08:56:15.316Z,18.01
2022-08-05T08:57:14.297Z,18.03
2022-08-05T08:58:14.328Z,18.06
2022-08-05T08:59:14.916Z,18.08
2022-08-05T09:00:15.726Z,18.11
2022-08-05T09:01:15.894Z,18.08
2022-08-05T09:02:14.249Z,18.06
2022-08-05T09:03:16.167Z,18.03
2022-08-05T09:04:14.298Z,18.02
2022-08-05T09:05:17.677Z,18.01
2022-08-05T09:06:18.531Z,18.01
2022-08-05T09:07:28.201Z,18.02
2022-08-05T09:08:15.188Z,17.99
2022-08-05T09:09:14.168Z,17.97
2022-08-05T09:10:14.387Z,17.93
2022-08-05T09:11:14.148Z,17.91
2022-08-05T09:12:20.406Z,17.91
2022-08-05T09:13:15.178Z,17.87
2022-08-05T09:14:58.480Z,17.87
2022-08-05T09:15:15.145Z,17.87
2022-08-05T09:16:14.660Z,17.87
2022-08-05T09:17:40.089Z,17.91
2022-08-05T09:18:15.098Z,17.88
2022-08-05T09:19:14.690Z,17.87
2022-08-05T09:20:36.258Z,17.86
2022-08-05T09:21:20.806Z,17.84
2022-08-05T09:22:23.268Z,17.86
2022-08-05T09:23:19.756Z,17.88
2022-08-05T09:24:15.426Z,17.90
2022-08-05T09:25:24.417Z,17.90
2022-08-05T09:26:21.121Z,17.88
2022-08-05T09:27:18.770Z,17.88
2022-08-05T09:28:14.971Z,17.90
2022-08-05T09:29:18.712Z,17.90
2022-08-05T09:30:16.506Z,17.94
2022-08-05T09:32:38.827Z,17.94
2022-08-05T09:32:39.941Z,17.99
2022-08-05T09:33:17.056Z,18.03
2022-08-05T09:34:13.907Z,18.05
2022-08-05T09:35:26.465Z,18.03
2022-08-05T09:36:16.694Z,18.03
2022-08-05T09:37:15.088Z,18.05
2022-08-05T09:38:18.681Z,18.06
2022-08-05T09:39:18.328Z,18.09
2022-08-05T09:40:14.977Z,18.06
2022-08-05T09:41:16.056Z,18.03
2022-08-05T09:42:22.968Z,18.02
2022-08-05T09:43:14.809Z,18.02
2022-08-05T09:44:13.798Z,17.99
2022-08-05T09:46:04.707Z,18.01
2022-08-05T09:46:15.508Z,18.01
2022-08-05T09:47:15.690Z,18.01
2022-08-05T09:48:13.749Z,18.01
2022-08-05T09:49:19.551Z,18.01
2022-08-05T09:50:18.103Z,18.02
2022-08-05T09:51:15.908Z,18.03
2022-08-05T09:52:13.709Z,18.06
2022-08-05T09:53:22.681Z,18.08
2022-08-05T09:54:14.716Z,18.06
2022-08-05T09:55:58.616Z,18.05
2022-08-05T09:56:14.689Z,18.03
2022-08-05T09:57:20.620Z,17.94
2022-08-05T09:58:14.651Z,17.94
2022-08-05T09:59:16.916Z,17.93
2022-08-05T10:00:13.657Z,17.88
2022-08-05T10:01:15.295Z,17.87
2022-08-05T10:02:14.633Z,17.87
2022-08-05T10:03:14.616Z,17.88
2022-08-05T10:04:13.593Z,17.90
2022-08-05T10:05:13.558Z,17.91
2022-08-05T10:06:15.528Z,17.91
2022-08-05T10:07:20.134Z,17.91
2022-08-05T10:08:36.277Z,17.91
2022-08-05T10:09:25.035Z,17.90
2022-08-05T10:10:15.726Z,17.90
2022-08-05T10:11:13.499Z,17.93
2022-08-05T10:12:18.804Z,17.94
2022-08-05T10:13:14.604Z,17.96
2022-08-05T10:14:13.469Z,17.97
2022-08-05T10:15:13.451Z,18.02
2022-08-05T10:16:13.480Z,18.08
2022-08-05T10:17:14.130Z,18.11
2022-08-05T10:18:14.431Z,18.13
2022-08-05T10:19:13.418Z,18.11
2022-08-05T10:20:13.465Z,18.08
2022-08-05T10:21:15.742Z,18.08
2022-08-05T10:22:15.666Z,18.09
2022-08-05T10:23:33.994Z,18.08
2022-08-05T10:24:15.143Z,18.12
2022-08-05T10:25:14.341Z,18.15
2022-08-05T10:26:14.540Z,18.21
2022-08-05T10:27:13.359Z,18.24
2022-08-05T10:28:19.131Z,18.28
2022-08-05T10:29:14.309Z,18.33
2022-08-05T10:31:19.944Z,18.34
2022-08-05T10:32:48.396Z,18.34
2022-08-05T10:33:01.178Z,18.36
2022-08-05T10:33:14.705Z,18.39
2022-08-05T10:34:13.241Z,18.46
2022-08-05T10:35:13.241Z,18.52
2022-08-05T10:36:13.228Z,18.61
2022-08-05T10:37:13.218Z,18.67
2022-08-05T10:38:13.280Z,18.76
2022-08-05T10:39:15.277Z,18.82
2022-08-05T10:40:17.792Z,18.85
2022-08-05T10:41:13.903Z,18.89
2022-08-05T10:42:13.190Z,18.93
2022-08-05T10:43:13.164Z,18.98
2022-08-05T10:44:13.153Z,19.07
2022-08-05T10:45:23.613Z,19.12
2022-08-05T10:46:14.152Z,19.15
2022-08-05T10:47:26.830Z,19.17
2022-08-05T10:48:30.011Z,19.23
2022-08-05T10:49:16.574Z,19.30
2022-08-05T10:50:33.286Z,19.37
2022-08-05T10:51:22.101Z,19.45
2022-08-05T10:52:14.094Z,19.60
2022-08-05T10:53:13.058Z,19.72
2022-08-05T10:54:28.713Z,19.78
2022-08-05T10:55:16.087Z,19.84
2022-08-05T10:56:21.568Z,19.92
2022-08-05T10:57:14.014Z,19.94
2022-08-05T10:58:14.934Z,19.99
2022-08-05T11:00:04.211Z,20.02
2022-08-05T11:00:19.275Z,20.02
2022-08-05T11:01:15.034Z,20.00
2022-08-05T11:02:14.438Z,20.02
2022-08-05T11:03:25.169Z,20.02
2022-08-05T11:04:13.953Z,20.07
2022-08-05T11:05:13.547Z,20.11
2022-08-05T11:06:15.406Z,20.11
2022-08-05T11:07:12.902Z,20.09
2022-08-05T11:08:27.653Z,20.12
2022-08-05T11:09:16.895Z,20.15
2022-08-05T11:10:12.910Z,20.15
2022-08-05T11:11:16.692Z,20.17
2022-08-05T11:12:12.891Z,20.19
2022-08-05T11:13:12.830Z,20.25
2022-08-05T11:14:12.812Z,20.25
2022-08-05T11:15:20.331Z,20.25
2022-08-05T11:16:13.821Z,20.25
2022-08-05T11:17:58.034Z,20.29
2022-08-05T11:18:14.034Z,20.37
2022-08-05T11:20:16.669Z,20.46
2022-08-05T11:20:18.267Z,20.52
2022-08-05T11:21:12.753Z,20.53
2022-08-05T11:22:12.781Z,20.50
2022-08-05T11:23:12.760Z,20.63
2022-08-05T11:24:30.014Z,20.74
2022-08-05T11:26:03.429Z,20.82
2022-08-05T11:26:13.717Z,20.88
2022-08-05T11:27:12.696Z,20.92
2022-08-05T11:28:17.177Z,20.93
2022-08-05T11:29:14.317Z,20.93
2022-08-05T11:30:12.643Z,20.97
2022-08-05T11:31:12.635Z,20.98
2022-08-05T11:32:13.637Z,21.00
2022-08-05T11:33:13.756Z,21.04
2022-08-05T11:34:14.734Z,21.07
2022-08-05T11:35:15.471Z,21.07
2022-08-05T11:36:12.605Z,21.07
2022-08-05T11:38:30.691Z,21.04
2022-08-05T11:38:30.741Z,21.04
2022-08-05T11:39:13.750Z,21.04
2022-08-05T11:40:12.653Z,21.03
2022-08-05T11:41:57.897Z,21.03
2022-08-05T11:42:18.541Z,21.11
2022-08-05T11:43:13.494Z,21.14
2022-08-05T11:44:12.529Z,21.19
2022-08-05T11:45:14.369Z,21.22
2022-08-05T11:46:15.151Z,21.20
2022-08-05T11:47:17.365Z,21.16
2022-08-05T11:48:13.463Z,21.08
2022-08-05T11:49:12.434Z,21.07
2022-08-05T11:50:14.119Z,21.05
2022-08-05T11:51:12.414Z,21.07
2022-08-05T11:52:13.413Z,21.10
2022-08-05T11:53:12.397Z,21.25
2022-08-05T11:54:13.941Z,21.50
2022-08-05T11:55:12.653Z,21.82
2022-08-05T11:56:12.388Z,22.07
2022-08-05T11:57:25.217Z,22.23
2022-08-05T11:58:13.466Z,22.30
2022-08-05T11:59:13.805Z,22.31
2022-08-05T12:00:12.325Z,22.31
2022-08-05T12:01:12.346Z,22.18
2022-08-05T12:02:29.936Z,22.06
2022-08-05T12:03:13.355Z,21.93
2022-08-05T12:04:12.275Z,21.81
2022-08-05T12:05:17.960Z,21.73
2022-08-05T12:06:13.245Z,21.62
2022-08-05T12:07:12.246Z,21.56
2022-08-05T12:08:18.241Z,21.44
2022-08-05T12:09:20.048Z,21.14
2022-08-05T12:10:13.292Z,20.98
2022-08-05T12:11:20.214Z,20.88
2022-08-05T12:12:13.185Z,20.88
2022-08-05T12:13:15.919Z,20.88
2022-08-05T12:14:13.166Z,20.93
2022-08-05T12:15:16.653Z,21.00
2022-08-05T12:16:14.567Z,21.08
2022-08-05T12:18:00.673Z,21.19
2022-08-05T12:18:13.501Z,21.25
2022-08-05T12:20:25.421Z,21.30
2022-08-05T12:20:25.516Z,21.29
2022-08-05T12:21:13.096Z,21.34
2022-08-05T12:22:12.080Z,21.37
2022-08-05T12:23:12.103Z,21.38
2022-08-05T12:24:12.065Z,21.41
2022-08-05T12:25:14.470Z,21.32
2022-08-05T12:26:12.036Z,21.30
2022-08-05T12:27:25.188Z,21.32
2022-08-05T12:28:15.774Z,21.32
2022-08-05T12:29:16.338Z,21.32
2022-08-05T12:30:15.482Z,21.40
2022-08-05T12:31:11.988Z,21.44
2022-08-05T12:32:12.966Z,21.50
2022-08-05T12:33:27.297Z,21.55
2022-08-05T12:34:20.386Z,21.48
2022-08-05T12:35:12.946Z,21.45
2022-08-05T12:36:11.969Z,21.37
2022-08-05T12:37:16.945Z,21.26
2022-08-05T12:38:12.907Z,21.19
2022-08-05T12:39:11.986Z,21.14
2022-08-05T12:40:26.462Z,21.08
2022-08-05T12:41:13.799Z,21.03
2022-08-05T12:42:14.945Z,21.03
2022-08-05T12:43:11.858Z,21.03
2022-08-05T12:44:14.270Z,21.03
2022-08-05T12:45:11.838Z,21.04
2022-08-05T12:46:12.349Z,21.01
2022-08-05T12:47:12.305Z,21.03
2022-08-05T12:48:27.798Z,21.01
2022-08-05T12:49:13.608Z,21.00
2022-08-05T12:50:11.778Z,20.95
2022-08-05T12:51:21.671Z,20.92
2022-08-05T12:52:22.828Z,20.92
2022-08-05T12:53:12.775Z,20.93